Terminal Aerodrome Forecast
Issued by NWS

Home | Current Version | Previous Version | Graphics & Text | Print | Product List | Glossary On
Versions: 1 2 3 4 5 6 7 8 9 10 11 12 13 14 15 16 17 18 19 20 21 22 23 24 25 26 27
203
FTUS43 KLOT 210312 AAA
TAFORD
TAF AMD
KORD 210312Z 2103/2206 11006KT 6SM BR SCT012 BKN035
     FM210600 17009KT 5SM BR VCSH SCT007 BKN015
      TEMPO 2106/2109 2SM -SHRA BR BKN007
     FM210900 26012KT P6SM BKN020
     FM211500 25015G24KT P6SM BKN035=

USA.gov is the U.S. government's official web portal to all federal, state and local government web resources and services.